sensor_id;sensor_type;location;lat;lon;timestamp;pressure;altitude;pressure_sealevel;temperature;humidity
19236;BME280;9752;54.270;12.470;2023-07-09T00:01:35;102640.22;;;10.97;100.00
19236;BME280;9752;54.270;12.470;2023-07-09T00:06:37;102670.44;;;11.26;100.00
19236;BME280;9752;54.270;12.470;2023-07-09T00:11:41;102680.03;;;10.87;100.00
19236;BME280;9752;54.270;12.470;2023-07-09T00:16:43;102779.94;;;10.63;100.00
19236;BME280;9752;54.270;12.470;2023-07-09T00:21:48;102804.34;;;10.46;100.00
19236;BME280;9752;54.270;12.470;2023-07-09T00:26:54;102826.25;;;10.31;100.00
19236;BME280;9752;54.270;12.470;2023-07-09T00:31:56;102841.81;;;10.31;100.00
19236;BME280;9752;54.270;12.470;2023-07-09T00:36:58;102872.16;;;10.32;100.00
19236;BME280;9752;54.270;12.470;2023-07-09T00:42:01;102976.84;;;10.24;100.00
19236;BME280;9752;54.270;12.470;2023-07-09T00:47:18;102981.34;;;9.99;100.00
19236;BME280;9752;54.270;12.470;2023-07-09T00:52:24;103014.88;;;9.97;100.00
19236;BME280;9752;54.270;12.470;2023-07-09T00:57:31;103041.75;;;9.89;100.00
19236;BME280;9752;54.270;12.470;2023-07-09T01:02:33;103075.13;;;9.86;100.00
19236;BME280;9752;54.270;12.470;2023-07-09T01:07:35;103100.56;;;9.72;100.00
19236;BME280;9752;54.270;12.470;2023-07-09T01:12:38;103109.53;;;9.67;100.00
19236;BME280;9752;54.270;12.470;2023-07-09T01:17:39;103157.63;;;10.16;100.00
19236;BME280;9752;54.270;12.470;2023-07-09T01:22:47;103195.44;;;10.05;100.00
19236;BME280;9752;54.270;12.470;2023-07-09T01:27:50;103217.97;;;9.71;100.00
19236;BME280;9752;54.270;12.470;2023-07-09T01:32:56;103246.88;;;9.58;100.00
19236;BME280;9752;54.270;12.470;2023-07-09T01:37:59;103259.78;;;9.50;100.00
19236;BME280;9752;54.270;12.470;2023-07-09T01:43:03;103279.97;;;9.36;100.00
19236;BME280;9752;54.270;12.470;2023-07-09T01:48:07;103306.16;;;9.31;100.00
19236;BME280;9752;54.270;12.470;2023-07-09T01:53:19;103335.50;;;9.23;100.00
19236;BME280;9752;54.270;12.470;2023-07-09T01:58:23;103348.94;;;9.27;100.00
19236;BME280;9752;54.270;12.470;2023-07-09T02:03:26;103368.09;;;9.21;100.00
19236;BME280;9752;54.270;12.470;2023-07-09T02:08:29;103384.53;;;9.21;100.00
19236;BME280;9752;54.270;12.470;2023-07-09T02:13:31;103401.59;;;9.19;100.00
19236;BME280;9752;54.270;12.470;2023-07-09T02:18:34;103418.72;;;9.10;100.00
19236;BME280;9752;54.270;12.470;2023-07-09T02:23:37;103434.94;;;9.00;100.00
19236;BME280;9752;54.270;12.470;2023-07-09T02:28:39;103454.38;;;8.96;100.00
19236;BME280;9752;54.270;12.470;2023-07-09T02:33:40;103474.59;;;8.92;100.00
19236;BME280;9752;54.270;12.470;2023-07-09T02:38:43;103486.47;;;9.06;100.00
19236;BME280;9752;54.270;12.470;2023-07-09T02:43:45;103508.69;;;9.04;100.00
19236;BME280;9752;54.270;12.470;2023-07-09T02:48:47;103524.63;;;8.99;100.00
19236;BME280;9752;54.270;12.470;2023-07-09T02:53:52;103543.91;;;8.94;100.00
19236;BME280;9752;54.270;12.470;2023-07-09T02:58:53;103566.72;;;9.22;100.00
19236;BME280;9752;54.270;12.470;2023-07-09T03:03:55;103587.94;;;9.10;100.00
19236;BME280;9752;54.270;12.470;2023-07-09T03:09:00;103595.63;;;9.02;100.00
19236;BME280;9752;54.270;12.470;2023-07-09T03:14:02;103615.09;;;9.14;100.00
19236;BME280;9752;54.270;12.470;2023-07-09T03:19:04;103627.53;;;9.09;100.00
19236;BME280;9752;54.270;12.470;2023-07-09T03:24:07;103632.34;;;9.06;100.00
19236;BME280;9752;54.270;12.470;2023-07-09T03:29:09;103638.56;;;9.15;100.00
19236;BME280;9752;54.270;12.470;2023-07-09T03:34:11;103669.69;;;9.31;100.00
19236;BME280;9752;54.270;12.470;2023-07-09T03:39:14;103708.28;;;9.60;100.00
19236;BME280;9752;54.270;12.470;2023-07-09T03:44:16;103740.00;;;9.89;100.00
19236;BME280;9752;54.270;12.470;2023-07-09T03:49:17;103775.94;;;10.09;100.00
19236;BME280;9752;54.270;12.470;2023-07-09T03:54:20;103804.81;;;10.28;100.00
19236;BME280;9752;54.270;12.470;2023-07-09T03:59:22;103801.69;;;10.24;100.00
19236;BME280;9752;54.270;12.470;2023-07-09T04:04:23;103808.94;;;10.42;100.00
19236;BME280;9752;54.270;12.470;2023-07-09T04:09:26;103831.13;;;10.47;100.00
19236;BME280;9752;54.270;12.470;2023-07-09T04:14:28;103856.41;;;10.73;100.00
19236;BME280;9752;54.270;12.470;2023-07-09T04:19:30;103890.88;;;11.04;100.00
19236;BME280;9752;54.270;12.470;2023-07-09T04:24:32;103903.09;;;11.21;100.00
19236;BME280;9752;54.270;12.470;2023-07-09T04:29:34;103905.25;;;11.25;100.00
19236;BME280;9752;54.270;12.470;2023-07-09T04:34:38;103947.66;;;11.73;100.00
19236;BME280;9752;54.270;12.470;2023-07-09T04:39:41;103965.72;;;11.96;100.00
19236;BME280;9752;54.270;12.470;2023-07-09T04:44:44;104002.03;;;12.28;100.00
19236;BME280;9752;54.270;12.470;2023-07-09T04:49:46;104024.44;;;12.43;100.00
19236;BME280;9752;54.270;12.470;2023-07-09T04:54:49;104051.28;;;12.84;100.00
19236;BME280;9752;54.270;12.470;2023-07-09T04:59:50;104092.94;;;13.26;100.00
19236;BME280;9752;54.270;12.470;2023-07-09T05:04:52;104126.00;;;13.61;100.00
19236;BME280;9752;54.270;12.470;2023-07-09T05:09:55;104166.84;;;13.95;100.00
19236;BME280;9752;54.270;12.470;2023-07-09T05:14:57;104182.94;;;14.26;100.00
19236;BME280;9752;54.270;12.470;2023-07-09T05:19:58;104216.13;;;14.71;100.00
19236;BME280;9752;54.270;12.470;2023-07-09T05:25:01;104239.38;;;15.13;100.00
19236;BME280;9752;54.270;12.470;2023-07-09T05:30:04;104236.91;;;15.51;100.00
19236;BME280;9752;54.270;12.470;2023-07-09T05:35:07;104226.56;;;16.08;100.00
19236;BME280;9752;54.270;12.470;2023-07-09T05:40:10;104183.84;;;16.47;100.00
19236;BME280;9752;54.270;12.470;2023-07-09T05:45:12;104103.31;;;17.04;100.00
19236;BME280;9752;54.270;12.470;2023-07-09T05:50:14;103984.81;;;17.51;100.00
19236;BME280;9752;54.270;12.470;2023-07-09T05:55:17;103832.56;;;18.05;100.00
19236;BME280;9752;54.270;12.470;2023-07-09T06:00:19;103627.88;;;18.56;100.00
19236;BME280;9752;54.270;12.470;2023-07-09T06:05:20;103423.88;;;18.83;100.00
19236;BME280;9752;54.270;12.470;2023-07-09T06:10:23;103141.63;;;19.10;100.00
19236;BME280;9752;54.270;12.470;2023-07-09T06:15:25;102884.31;;;19.49;100.00
19236;BME280;9752;54.270;12.470;2023-07-09T06:20:27;102597.16;;;19.78;100.00
19236;BME280;9752;54.270;12.470;2023-07-09T06:25:30;102431.06;;;20.28;100.00
19236;BME280;9752;54.270;12.470;2023-07-09T06:30:31;102410.25;;;20.54;100.00
19236;BME280;9752;54.270;12.470;2023-07-09T06:35:33;102396.06;;;20.70;100.00
19236;BME280;9752;54.270;12.470;2023-07-09T06:40:36;102393.25;;;20.86;100.00
19236;BME280;9752;54.270;12.470;2023-07-09T06:45:38;102370.06;;;20.99;100.00
19236;BME280;9752;54.270;12.470;2023-07-09T06:50:39;102361.97;;;21.38;100.00
19236;BME280;9752;54.270;12.470;2023-07-09T06:55:43;102358.75;;;21.66;100.00
19236;BME280;9752;54.270;12.470;2023-07-09T07:00:45;102354.06;;;21.81;100.00
19236;BME280;9752;54.270;12.470;2023-07-09T07:05:47;102361.97;;;22.04;100.00
19236;BME280;9752;54.270;12.470;2023-07-09T07:10:54;102358.53;;;22.53;100.00
19236;BME280;9752;54.270;12.470;2023-07-09T07:16:02;102355.41;;;22.64;100.00
19236;BME280;9752;54.270;12.470;2023-07-09T07:21:04;102354.66;;;22.93;100.00
19236;BME280;9752;54.270;12.470;2023-07-09T07:26:08;102371.81;;;23.30;100.00
19236;BME280;9752;54.270;12.470;2023-07-09T07:31:10;102358.53;;;23.29;100.00
19236;BME280;9752;54.270;12.470;2023-07-09T07:36:12;102352.00;;;23.73;100.00
19236;BME280;9752;54.270;12.470;2023-07-09T07:41:15;102360.53;;;23.92;100.00
19236;BME280;9752;54.270;12.470;2023-07-09T07:46:17;102350.75;;;24.20;100.00
19236;BME280;9752;54.270;12.470;2023-07-09T07:51:18;102360.50;;;24.21;100.00
19236;BME280;9752;54.270;12.470;2023-07-09T07:56:21;102357.53;;;24.40;100.00
19236;BME280;9752;54.270;12.470;2023-07-09T08:01:23;102362.34;;;24.53;100.00
19236;BME280;9752;54.270;12.470;2023-07-09T08:06:25;102362.81;;;24.70;100.00
19236;BME280;9752;54.270;12.470;2023-07-09T08:11:28;102357.16;;;25.25;100.00
19236;BME280;9752;54.270;12.470;2023-07-09T08:16:31;102360.00;;;25.32;100.00
19236;BME280;9752;54.270;12.470;2023-07-09T08:21:33;102362.53;;;25.28;100.00
19236;BME280;9752;54.270;12.470;2023-07-09T08:26:36;102352.16;;;25.37;100.00
19236;BME280;9752;54.270;12.470;2023-07-09T08:31:39;102344.25;;;25.80;100.00
19236;BME280;9752;54.270;12.470;2023-07-09T08:36:42;102358.94;;;25.62;100.00
19236;BME280;9752;54.270;12.470;2023-07-09T08:41:48;102344.66;;;25.97;99.28
19236;BME280;9752;54.270;12.470;2023-07-09T08:47:00;102351.72;;;26.39;95.59
19236;BME280;9752;54.270;12.470;2023-07-09T08:52:02;102354.34;;;26.36;87.51
19236;BME280;9752;54.270;12.470;2023-07-09T08:57:16;102353.09;;;26.18;88.57
19236;BME280;9752;54.270;12.470;2023-07-09T09:02:29;102349.91;;;26.36;87.23
19236;BME280;9752;54.270;12.470;2023-07-09T09:07:39;102348.94;;;26.78;86.66
19236;BME280;9752;54.270;12.470;2023-07-09T09:12:52;102342.13;;;26.96;85.82
19236;BME280;9752;54.270;12.470;2023-07-09T09:18:01;102325.38;;;27.00;85.23
19236;BME280;9752;54.270;12.470;2023-07-09T09:23:14;102340.38;;;26.95;78.74
19236;BME280;9752;54.270;12.470;2023-07-09T09:28:17;102339.81;;;27.16;78.06
19236;BME280;9752;54.270;12.470;2023-07-09T09:33:19;102335.09;;;26.98;74.46
19236;BME280;9752;54.270;12.470;2023-07-09T09:38:22;102334.53;;;26.67;72.91
19236;BME280;9752;54.270;12.470;2023-07-09T09:43:32;102337.31;;;26.72;79.54
19236;BME280;9752;54.270;12.470;2023-07-09T09:48:34;102334.03;;;26.42;74.88
19236;BME280;9752;54.270;12.470;2023-07-09T09:53:41;102330.91;;;26.62;80.29
19236;BME280;9752;54.270;12.470;2023-07-09T09:58:52;102328.88;;;26.99;76.75
19236;BME280;9752;54.270;12.470;2023-07-09T10:03:56;102320.28;;;27.15;77.24
19236;BME280;9752;54.270;12.470;2023-07-09T10:09:03;102335.75;;;27.36;76.87
19236;BME280;9752;54.270;12.470;2023-07-09T10:14:31;102327.66;;;27.32;76.30
19236;BME280;9752;54.270;12.470;2023-07-09T10:19:39;102324.13;;;27.94;75.66
19236;BME280;9752;54.270;12.470;2023-07-09T10:24:53;102320.72;;;28.04;72.74
19236;BME280;9752;54.270;12.470;2023-07-09T10:30:31;102315.59;;;28.24;73.78
19236;BME280;9752;54.270;12.470;2023-07-09T10:35:45;102318.25;;;28.24;70.19
19236;BME280;9752;54.270;12.470;2023-07-09T10:40:52;102314.72;;;28.25;71.63
19236;BME280;9752;54.270;12.470;2023-07-09T10:46:01;102306.44;;;28.00;72.41
19236;BME280;9752;54.270;12.470;2023-07-09T10:51:09;102307.59;;;28.26;67.53
19236;BME280;9752;54.270;12.470;2023-07-09T10:56:14;102304.97;;;28.30;67.66
19236;BME280;9752;54.270;12.470;2023-07-09T11:01:28;102308.75;;;28.51;71.01
19236;BME280;9752;54.270;12.470;2023-07-09T11:06:34;102303.06;;;28.18;67.90
19236;BME280;9752;54.270;12.470;2023-07-09T11:11:40;102300.53;;;28.29;62.36
19236;BME280;9752;54.270;12.470;2023-07-09T11:16:45;102304.28;;;28.48;66.85
19236;BME280;9752;54.270;12.470;2023-07-09T11:21:58;102287.22;;;29.32;65.82
19236;BME280;9752;54.270;12.470;2023-07-09T11:27:01;102283.69;;;29.37;63.93
19236;BME280;9752;54.270;12.470;2023-07-09T11:32:17;102274.84;;;29.55;59.75
19236;BME280;9752;54.270;12.470;2023-07-09T11:37:23;102256.13;;;29.52;60.53
19236;BME280;9752;54.270;12.470;2023-07-09T11:42:29;102267.66;;;29.37;64.56
19236;BME280;9752;54.270;12.470;2023-07-09T11:47:34;102251.63;;;29.42;59.98
19236;BME280;9752;54.270;12.470;2023-07-09T11:52:43;102234.84;;;29.74;58.65
19236;BME280;9752;54.270;12.470;2023-07-09T11:57:47;102232.22;;;29.85;61.45
19236;BME280;9752;54.270;12.470;2023-07-09T12:02:51;102221.59;;;30.31;58.55
19236;BME280;9752;54.270;12.470;2023-07-09T12:07:53;102231.44;;;30.30;59.94
19236;BME280;9752;54.270;12.470;2023-07-09T12:12:56;102216.31;;;30.43;55.94
19236;BME280;9752;54.270;12.470;2023-07-09T12:18:01;102222.50;;;30.19;54.01
19236;BME280;9752;54.270;12.470;2023-07-09T12:23:11;102235.81;;;29.96;58.55
19236;BME280;9752;54.270;12.470;2023-07-09T12:28:19;102229.66;;;30.39;57.02
19236;BME280;9752;54.270;12.470;2023-07-09T12:33:25;102220.75;;;30.57;58.67
19236;BME280;9752;54.270;12.470;2023-07-09T12:38:29;102224.25;;;30.22;63.50
19236;BME280;9752;54.270;12.470;2023-07-09T12:43:31;102211.75;;;30.04;71.62
19236;BME280;9752;54.270;12.470;2023-07-09T12:48:34;102198.44;;;30.45;74.86
19236;BME280;9752;54.270;12.470;2023-07-09T12:53:36;102194.88;;;30.40;76.65
19236;BME280;9752;54.270;12.470;2023-07-09T12:58:39;102194.84;;;30.19;78.38
19236;BME280;9752;54.270;12.470;2023-07-09T13:03:53;102187.69;;;30.27;76.96
19236;BME280;9752;54.270;12.470;2023-07-09T13:08:57;102186.78;;;30.79;80.42
19236;BME280;9752;54.270;12.470;2023-07-09T13:14:05;102182.34;;;30.68;73.38
19236;BME280;9752;54.270;12.470;2023-07-09T13:19:08;102172.50;;;30.89;75.15
19236;BME280;9752;54.270;12.470;2023-07-09T13:24:19;102170.66;;;31.16;72.39
19236;BME280;9752;54.270;12.470;2023-07-09T13:29:23;102165.28;;;31.19;72.81
19236;BME280;9752;54.270;12.470;2023-07-09T13:34:27;102167.16;;;30.92;70.90
19236;BME280;9752;54.270;12.470;2023-07-09T13:39:33;102155.56;;;30.65;76.26
19236;BME280;9752;54.270;12.470;2023-07-09T13:44:35;102163.59;;;30.78;77.53
19236;BME280;9752;54.270;12.470;2023-07-09T13:49:38;102165.38;;;30.82;77.13
19236;BME280;9752;54.270;12.470;2023-07-09T13:54:39;102159.09;;;30.84;73.68
19236;BME280;9752;54.270;12.470;2023-07-09T13:59:41;102152.75;;;31.28;69.43
19236;BME280;9752;54.270;12.470;2023-07-09T14:04:44;102161.59;;;31.41;72.76
19236;BME280;9752;54.270;12.470;2023-07-09T14:09:46;102170.72;;;30.77;75.59
19236;BME280;9752;54.270;12.470;2023-07-09T14:14:49;102146.53;;;31.11;77.25
19236;BME280;9752;54.270;12.470;2023-07-09T14:19:53;102146.41;;;31.45;75.49
19236;BME280;9752;54.270;12.470;2023-07-09T14:24:55;102130.78;;;32.13;68.08
19236;BME280;9752;54.270;12.470;2023-07-09T14:29:56;102131.16;;;32.71;69.30
19236;BME280;9752;54.270;12.470;2023-07-09T14:35:03;102132.78;;;32.84;70.31
19236;BME280;9752;54.270;12.470;2023-07-09T14:40:05;102127.56;;;33.48;65.69
19236;BME280;9752;54.270;12.470;2023-07-09T14:45:16;102136.13;;;33.77;67.73
19236;BME280;9752;54.270;12.470;2023-07-09T14:50:22;102128.75;;;34.43;62.72
19236;BME280;9752;54.270;12.470;2023-07-09T14:55:24;102132.91;;;34.10;62.85
19236;BME280;9752;54.270;12.470;2023-07-09T15:00:26;102124.66;;;34.20;66.62
19236;BME280;9752;54.270;12.470;2023-07-09T15:05:29;102136.09;;;33.79;65.93
19236;BME280;9752;54.270;12.470;2023-07-09T15:10:31;102137.25;;;34.18;65.78
19236;BME280;9752;54.270;12.470;2023-07-09T15:15:32;102136.38;;;34.18;66.14
19236;BME280;9752;54.270;12.470;2023-07-09T15:20:36;102134.19;;;33.86;67.25
19236;BME280;9752;54.270;12.470;2023-07-09T15:25:38;102123.53;;;33.79;68.81
19236;BME280;9752;54.270;12.470;2023-07-09T15:30:40;102126.72;;;33.42;68.86
19236;BME280;9752;54.270;12.470;2023-07-09T15:35:44;102114.50;;;33.82;70.81
19236;BME280;9752;54.270;12.470;2023-07-09T15:40:47;102112.66;;;33.22;72.48
19236;BME280;9752;54.270;12.470;2023-07-09T15:45:50;102103.91;;;33.03;76.20
19236;BME280;9752;54.270;12.470;2023-07-09T15:50:53;102103.69;;;32.41;76.91
19236;BME280;9752;54.270;12.470;2023-07-09T15:55:57;102101.75;;;32.58;75.02
19236;BME280;9752;54.270;12.470;2023-07-09T16:01:00;102090.47;;;32.19;79.42
19236;BME280;9752;54.270;12.470;2023-07-09T16:06:03;102076.44;;;32.78;77.96
19236;BME280;9752;54.270;12.470;2023-07-09T16:11:12;102071.56;;;32.32;80.56
19236;BME280;9752;54.270;12.470;2023-07-09T16:16:15;102053.94;;;31.97;82.23
19236;BME280;9752;54.270;12.470;2023-07-09T16:21:23;102046.47;;;31.15;91.75
19236;BME280;9752;54.270;12.470;2023-07-09T16:26:25;102048.47;;;30.59;93.53
19236;BME280;9752;54.270;12.470;2023-07-09T16:31:26;102058.31;;;30.20;99.80
19236;BME280;9752;54.270;12.470;2023-07-09T16:36:29;102044.53;;;31.37;99.86
19236;BME280;9752;54.270;12.470;2023-07-09T16:41:31;102042.94;;;31.05;95.30
19236;BME280;9752;54.270;12.470;2023-07-09T16:46:33;102048.06;;;31.45;93.55
19236;BME280;9752;54.270;12.470;2023-07-09T16:51:36;102047.22;;;31.46;88.03
19236;BME280;9752;54.270;12.470;2023-07-09T16:56:37;102043.06;;;30.71;86.28
19236;BME280;9752;54.270;12.470;2023-07-09T17:01:39;102038.69;;;30.43;75.84
19236;BME280;9752;54.270;12.470;2023-07-09T17:06:43;102038.53;;;30.83;72.87
19236;BME280;9752;54.270;12.470;2023-07-09T17:11:45;102037.75;;;30.58;70.37
19236;BME280;9752;54.270;12.470;2023-07-09T17:16:46;102024.22;;;30.99;70.11
19236;BME280;9752;54.270;12.470;2023-07-09T17:21:52;102030.94;;;31.71;65.21
19236;BME280;9752;54.270;12.470;2023-07-09T17:26:56;102030.38;;;31.17;67.63
19236;BME280;9752;54.270;12.470;2023-07-09T17:31:58;102037.53;;;31.13;68.44
19236;BME280;9752;54.270;12.470;2023-07-09T17:37:01;102053.69;;;31.01;66.87
19236;BME280;9752;54.270;12.470;2023-07-09T17:42:03;102055.69;;;30.35;67.52
19236;BME280;9752;54.270;12.470;2023-07-09T17:47:13;102053.88;;;30.27;70.56
19236;BME280;9752;54.270;12.470;2023-07-09T17:52:17;102046.63;;;29.27;74.17
19236;BME280;9752;54.270;12.470;2023-07-09T17:57:24;102046.94;;;28.15;78.57
19236;BME280;9752;54.270;12.470;2023-07-09T18:02:28;102065.59;;;27.25;81.55
19236;BME280;9752;54.270;12.470;2023-07-09T18:07:32;102070.50;;;26.32;84.11
19236;BME280;9752;54.270;12.470;2023-07-09T18:12:34;102066.97;;;25.81;87.42
19236;BME280;9752;54.270;12.470;2023-07-09T18:17:36;102064.59;;;25.05;93.81
19236;BME280;9752;54.270;12.470;2023-07-09T18:22:39;102058.13;;;24.52;99.30
19236;BME280;9752;54.270;12.470;2023-07-09T18:27:42;102052.19;;;24.25;100.00
19236;BME280;9752;54.270;12.470;2023-07-09T18:32:45;102062.19;;;23.68;100.00
19236;BME280;9752;54.270;12.470;2023-07-09T18:37:56;102069.78;;;23.23;100.00
19236;BME280;9752;54.270;12.470;2023-07-09T18:42:58;102077.47;;;22.56;94.09
19236;BME280;9752;54.270;12.470;2023-07-09T18:48:00;102088.44;;;22.15;96.34
19236;BME280;9752;54.270;12.470;2023-07-09T18:53:03;102095.53;;;21.65;97.33
19236;BME280;9752;54.270;12.470;2023-07-09T18:58:09;102082.63;;;21.26;99.23
19236;BME280;9752;54.270;12.470;2023-07-09T19:03:14;102086.19;;;20.80;100.00
19236;BME280;9752;54.270;12.470;2023-07-09T19:08:20;102095.22;;;20.43;100.00
19236;BME280;9752;54.270;12.470;2023-07-09T19:13:22;102098.72;;;20.00;100.00
19236;BME280;9752;54.270;12.470;2023-07-09T19:18:25;102102.78;;;19.72;100.00
19236;BME280;9752;54.270;12.470;2023-07-09T19:23:29;102108.44;;;19.42;100.00
19236;BME280;9752;54.270;12.470;2023-07-09T19:28:31;102097.94;;;19.03;100.00
19236;BME280;9752;54.270;12.470;2023-07-09T19:33:34;102097.94;;;18.85;100.00
19236;BME280;9752;54.270;12.470;2023-07-09T19:38:38;102091.19;;;18.72;100.00
19236;BME280;9752;54.270;12.470;2023-07-09T19:43:40;102093.75;;;18.53;100.00
19236;BME280;9752;54.270;12.470;2023-07-09T19:48:42;102091.66;;;18.46;100.00
19236;BME280;9752;54.270;12.470;2023-07-09T19:53:45;102076.50;;;18.40;100.00
19236;BME280;9752;54.270;12.470;2023-07-09T19:58:46;102099.75;;;18.32;100.00
19236;BME280;9752;54.270;12.470;2023-07-09T20:03:48;102096.44;;;18.19;100.00
19236;BME280;9752;54.270;12.470;2023-07-09T20:08:52;102097.41;;;18.03;100.00
19236;BME280;9752;54.270;12.470;2023-07-09T20:13:53;102089.31;;;17.82;100.00
19236;BME280;9752;54.270;12.470;2023-07-09T20:18:55;102098.84;;;17.63;100.00
19236;BME280;9752;54.270;12.470;2023-07-09T20:23:58;102089.25;;;17.64;100.00
19236;BME280;9752;54.270;12.470;2023-07-09T20:29:00;102094.19;;;17.58;100.00
19236;BME280;9752;54.270;12.470;2023-07-09T20:34:11;102101.41;;;17.29;100.00
19236;BME280;9752;54.270;12.470;2023-07-09T20:39:17;102095.66;;;17.20;100.00
19236;BME280;9752;54.270;12.470;2023-07-09T20:44:21;102089.75;;;17.07;100.00
19236;BME280;9752;54.270;12.470;2023-07-09T20:49:27;102079.25;;;16.91;100.00
19236;BME280;9752;54.270;12.470;2023-07-09T20:54:30;102085.31;;;16.90;100.00
19236;BME280;9752;54.270;12.470;2023-07-09T20:59:32;102085.88;;;16.84;100.00
19236;BME280;9752;54.270;12.470;2023-07-09T21:04:34;102080.25;;;16.78;100.00
19236;BME280;9752;54.270;12.470;2023-07-09T21:09:37;102093.03;;;16.72;100.00
19236;BME280;9752;54.270;12.470;2023-07-09T21:14:38;102092.41;;;16.61;100.00
19236;BME280;9752;54.270;12.470;2023-07-09T21:19:40;102090.69;;;16.62;100.00
19236;BME280;9752;54.270;12.470;2023-07-09T21:24:44;102100.03;;;16.56;100.00
19236;BME280;9752;54.270;12.470;2023-07-09T21:29:46;102113.38;;;16.61;100.00
19236;BME280;9752;54.270;12.470;2023-07-09T21:34:48;102121.31;;;16.63;100.00
19236;BME280;9752;54.270;12.470;2023-07-09T21:39:52;102122.97;;;16.46;100.00
19236;BME280;9752;54.270;12.470;2023-07-09T21:44:53;102120.81;;;16.38;100.00
19236;BME280;9752;54.270;12.470;2023-07-09T21:49:55;102122.19;;;16.17;100.00
19236;BME280;9752;54.270;12.470;2023-07-09T21:54:58;102127.50;;;16.04;100.00
19236;BME280;9752;54.270;12.470;2023-07-09T21:59:59;102123.19;;;16.04;100.00
19236;BME280;9752;54.270;12.470;2023-07-09T22:05:15;102109.09;;;16.02;100.00
19236;BME280;9752;54.270;12.470;2023-07-09T22:10:24;102096.00;;;16.02;100.00
19236;BME280;9752;54.270;12.470;2023-07-09T22:15:28;102083.66;;;15.99;100.00
19236;BME280;9752;54.270;12.470;2023-07-09T22:20:30;102069.84;;;15.87;100.00
19236;BME280;9752;54.270;12.470;2023-07-09T22:25:33;102065.06;;;15.80;100.00
19236;BME280;9752;54.270;12.470;2023-07-09T22:30:35;102059.03;;;15.81;100.00
19236;BME280;9752;54.270;12.470;2023-07-09T22:35:37;102048.81;;;15.86;100.00
19236;BME280;9752;54.270;12.470;2023-07-09T22:40:40;102038.28;;;15.84;100.00
19236;BME280;9752;54.270;12.470;2023-07-09T22:45:43;102036.38;;;15.96;100.00
19236;BME280;9752;54.270;12.470;2023-07-09T22:50:47;102037.69;;;16.05;100.00
19236;BME280;9752;54.270;12.470;2023-07-09T22:55:53;102046.28;;;16.02;100.00
19236;BME280;9752;54.270;12.470;2023-07-09T23:00:56;102067.75;;;16.11;100.00
19236;BME280;9752;54.270;12.470;2023-07-09T23:06:02;102075.88;;;16.16;100.00
19236;BME280;9752;54.270;12.470;2023-07-09T23:11:14;102088.31;;;16.20;100.00
19236;BME280;9752;54.270;12.470;2023-07-09T23:16:18;102093.09;;;16.27;100.00
19236;BME280;9752;54.270;12.470;2023-07-09T23:21:22;102105.97;;;16.54;100.00
19236;BME280;9752;54.270;12.470;2023-07-09T23:26:26;102116.94;;;16.78;100.00
19236;BME280;9752;54.270;12.470;2023-07-09T23:31:30;102106.72;;;16.83;100.00
19236;BME280;9752;54.270;12.470;2023-07-09T23:36:32;102158.53;;;16.87;100.00
19236;BME280;9752;54.270;12.470;2023-07-09T23:41:37;102146.66;;;16.93;100.00
19236;BME280;9752;54.270;12.470;2023-07-09T23:46:39;102136.59;;;16.85;100.00
19236;BME280;9752;54.270;12.470;2023-07-09T23:51:41;102161.94;;;16.86;100.00
19236;BME280;9752;54.270;12.470;2023-07-09T23:56:46;102205.16;;;16.92;100.00
